createdAt,value
2018-08-09T00:00:09.856Z,99.90
2018-08-09T00:02:38.764Z,99.90
2018-08-09T00:05:07.714Z,99.90
2018-08-09T00:07:36.576Z,99.90
2018-08-09T00:10:06.068Z,99.90
2018-08-09T00:12:34.988Z,99.90
2018-08-09T00:15:04.470Z,99.90
2018-08-09T00:17:33.379Z,99.90
2018-08-09T00:20:02.311Z,99.90
2018-08-09T00:22:31.225Z,99.90
2018-08-09T00:25:00.068Z,99.90
2018-08-09T00:27:28.938Z,99.90
2018-08-09T00:29:57.815Z,99.90
2018-08-09T00:32:26.646Z,99.90
2018-08-09T00:34:55.455Z,99.90
2018-08-09T00:37:24.344Z,99.90
2018-08-09T00:39:53.179Z,99.90
2018-08-09T00:42:22.046Z,99.90
2018-08-09T00:44:50.935Z,99.90
2018-08-09T00:47:19.782Z,99.90
2018-08-09T00:49:48.623Z,99.90
2018-08-09T00:52:17.531Z,99.90
2018-08-09T00:54:46.376Z,99.90
2018-08-09T00:57:15.215Z,99.90
2018-08-09T00:59:44.081Z,99.90
2018-08-09T01:02:12.919Z,99.90
2018-08-09T01:04:41.754Z,99.90
2018-08-09T01:07:10.602Z,99.90
2018-08-09T01:09:39.425Z,99.90
2018-08-09T01:12:08.398Z,99.90
2018-08-09T01:14:37.226Z,99.90
2018-08-09T01:17:06.139Z,99.90
2018-08-09T01:19:35.090Z,99.90
2018-08-09T01:22:04.136Z,99.90
2018-08-09T01:24:33.002Z,99.90
2018-08-09T01:27:01.875Z,99.90
2018-08-09T01:29:30.763Z,99.90
2018-08-09T01:31:59.647Z,99.90
2018-08-09T01:34:28.503Z,99.90
2018-08-09T01:36:57.375Z,99.90
2018-08-09T01:39:26.207Z,99.90
2018-08-09T01:42:12.114Z,99.90
2018-08-09T01:44:40.958Z,99.90
2018-08-09T01:47:09.810Z,99.90
2018-08-09T01:49:38.664Z,99.90
2018-08-09T01:52:07.592Z,99.90
2018-08-09T01:54:36.495Z,99.90
2018-08-09T01:57:05.348Z,99.90
2018-08-09T01:59:34.237Z,99.90
2018-08-09T02:02:03.270Z,99.90
2018-08-09T02:04:32.137Z,99.90
2018-08-09T02:07:01.048Z,99.90
2018-08-09T02:09:31.713Z,99.90
2018-08-09T02:12:01.982Z,99.90
2018-08-09T02:14:30.923Z,99.90
2018-08-09T02:17:00.173Z,99.90
2018-08-09T02:19:29.268Z,99.90
2018-08-09T02:21:58.158Z,99.90
2018-08-09T02:24:27.035Z,99.90
2018-08-09T02:26:55.945Z,99.90
2018-08-09T02:29:24.791Z,99.90
2018-08-09T02:31:53.679Z,99.90
2018-08-09T02:34:22.547Z,99.90
2018-08-09T02:36:51.382Z,99.90
2018-08-09T02:39:20.239Z,99.90
2018-08-09T02:41:49.155Z,99.90
2018-08-09T02:44:18.012Z,99.90
2018-08-09T02:46:46.874Z,99.90
2018-08-09T02:49:15.707Z,99.90
2018-08-09T02:51:44.644Z,99.90
2018-08-09T02:54:13.529Z,99.90
2018-08-09T02:56:42.359Z,99.90
2018-08-09T02:59:11.219Z,99.90
2018-08-09T03:01:40.150Z,99.90
2018-08-09T03:04:09.032Z,99.90
2018-08-09T03:06:37.887Z,99.90
2018-08-09T03:09:10.602Z,99.90
2018-08-09T03:11:39.853Z,99.90
2018-08-09T03:14:08.721Z,99.90
2018-08-09T03:16:37.661Z,99.90
2018-08-09T03:19:06.700Z,99.90
2018-08-09T03:21:35.631Z,99.90
2018-08-09T03:24:04.594Z,99.90
2018-08-09T03:26:33.455Z,99.90
2018-08-09T03:29:02.318Z,99.90
2018-08-09T03:31:31.567Z,99.90
2018-08-09T03:34:00.395Z,99.90
2018-08-09T03:36:29.236Z,99.90
2018-08-09T03:38:58.260Z,99.90
2018-08-09T03:41:27.222Z,99.90
2018-08-09T03:43:56.157Z,99.90
2018-08-09T03:46:25.159Z,99.90
2018-08-09T03:48:54.120Z,99.90
2018-08-09T03:51:29.873Z,99.90
2018-08-09T03:53:58.743Z,99.90
2018-08-09T03:56:27.653Z,99.90
2018-08-09T03:58:56.495Z,99.90
2018-08-09T04:01:25.401Z,99.90
2018-08-09T04:03:54.293Z,99.90
2018-08-09T04:06:23.457Z,99.90
2018-08-09T04:08:52.342Z,99.90
2018-08-09T04:11:21.203Z,99.90
2018-08-09T04:13:50.050Z,99.90
2018-08-09T04:16:18.895Z,99.90
2018-08-09T04:18:48.415Z,99.90
2018-08-09T04:21:18.418Z,99.90
2018-08-09T04:23:47.742Z,99.90
2018-08-09T04:26:16.840Z,99.90
2018-08-09T04:28:45.976Z,99.90
2018-08-09T04:31:16.118Z,99.90
2018-08-09T04:33:45.901Z,99.90
2018-08-09T04:36:15.522Z,99.90
2018-08-09T04:38:45.243Z,99.90
2018-08-09T04:41:15.055Z,99.90
2018-08-09T04:43:44.528Z,99.90
2018-08-09T04:46:14.103Z,99.90
2018-08-09T04:48:43.204Z,99.90
2018-08-09T04:51:12.207Z,99.90
2018-08-09T04:53:42.130Z,99.90
2018-08-09T04:56:10.995Z,99.90
2018-08-09T04:58:39.859Z,99.90
2018-08-09T05:01:09.171Z,99.90
2018-08-09T05:03:38.182Z,99.90
2018-08-09T05:06:07.067Z,99.90
2018-08-09T05:08:35.959Z,99.90
2018-08-09T05:11:04.822Z,99.90
2018-08-09T05:13:33.731Z,99.90
2018-08-09T05:16:02.663Z,99.90
2018-08-09T05:18:31.716Z,99.90
2018-08-09T05:21:00.570Z,99.90
2018-08-09T05:23:30.531Z,99.90
2018-08-09T05:25:59.344Z,99.90
2018-08-09T05:28:28.931Z,99.90
2018-08-09T05:30:57.832Z,99.90
2018-08-09T05:33:26.979Z,99.90
2018-08-09T05:35:55.852Z,99.90
2018-08-09T05:38:24.703Z,99.90
2018-08-09T05:40:53.526Z,99.90
2018-08-09T05:43:22.433Z,99.90
2018-08-09T05:45:51.311Z,99.90
2018-08-09T05:48:20.354Z,99.90
2018-08-09T05:50:49.323Z,99.90
2018-08-09T05:53:18.276Z,99.90
2018-08-09T05:55:47.084Z,99.90
2018-08-09T05:58:15.906Z,99.90
2018-08-09T06:00:44.748Z,99.90
2018-08-09T06:03:13.724Z,99.90
2018-08-09T06:05:42.607Z,99.90
2018-08-09T06:08:11.449Z,99.90
2018-08-09T06:10:40.250Z,99.90
2018-08-09T06:13:09.110Z,99.90
2018-08-09T06:15:37.967Z,99.90
2018-08-09T06:18:07.206Z,99.90
2018-08-09T06:20:36.100Z,99.90
2018-08-09T06:23:05.175Z,99.90
2018-08-09T06:25:34.036Z,99.90
2018-08-09T06:28:03.023Z,99.90
2018-08-09T06:30:31.907Z,99.90
2018-08-09T06:33:00.879Z,99.90
2018-08-09T06:35:29.784Z,99.90
2018-08-09T06:37:58.663Z,99.90
2018-08-09T06:40:27.551Z,99.90
2018-08-09T06:42:56.439Z,99.90
2018-08-09T06:45:25.314Z,99.90
2018-08-09T06:47:54.139Z,99.90
2018-08-09T06:50:23.007Z,99.90
2018-08-09T06:52:52.004Z,99.90
2018-08-09T06:55:21.579Z,99.90
2018-08-09T06:57:50.687Z,99.90
2018-08-09T07:00:19.550Z,99.90
2018-08-09T07:02:48.463Z,99.90
2018-08-09T07:05:17.347Z,99.90
2018-08-09T07:07:46.660Z,99.90
2018-08-09T07:10:15.540Z,99.90
2018-08-09T07:12:44.977Z,99.90
2018-08-09T07:15:14.079Z,99.90
2018-08-09T07:17:43.197Z,99.90
2018-08-09T07:20:12.124Z,99.90
2018-08-09T07:22:41.438Z,99.90
2018-08-09T07:25:10.354Z,99.90
2018-08-09T07:27:39.203Z,99.90
2018-08-09T07:30:11.127Z,99.90
2018-08-09T07:32:40.234Z,99.90
2018-08-09T07:35:15.899Z,99.90
2018-08-09T07:37:44.788Z,99.90
2018-08-09T07:40:13.696Z,99.90
2018-08-09T07:42:43.030Z,99.90
2018-08-09T07:45:13.053Z,99.90
2018-08-09T07:47:42.223Z,99.90
2018-08-09T07:50:11.855Z,99.90
2018-08-09T07:52:41.116Z,99.90
2018-08-09T07:55:10.455Z,99.90
2018-08-09T07:57:40.202Z,99.90
2018-08-09T08:00:11.513Z,99.90
2018-08-09T08:02:40.872Z,99.90
2018-08-09T08:05:09.975Z,99.90
2018-08-09T08:07:39.320Z,99.90
2018-08-09T08:10:09.599Z,99.90
2018-08-09T08:12:39.321Z,99.90
2018-08-09T08:15:10.026Z,99.90
2018-08-09T08:17:39.390Z,99.90
2018-08-09T08:20:09.119Z,99.90
2018-08-09T08:22:38.497Z,99.90
2018-08-09T08:25:07.927Z,99.90
2018-08-09T08:27:36.950Z,99.90
2018-08-09T08:30:10.404Z,99.90
2018-08-09T08:32:40.939Z,99.90
2018-08-09T08:35:10.234Z,99.90
2018-08-09T08:37:40.297Z,99.90
2018-08-09T08:40:10.108Z,99.90
2018-08-09T08:42:39.140Z,99.90
2018-08-09T08:45:12.192Z,99.90
2018-08-09T08:47:42.171Z,99.90
2018-08-09T08:50:11.880Z,99.90
2018-08-09T08:52:41.116Z,99.90
2018-08-09T08:55:11.996Z,99.90
2018-08-09T08:57:40.926Z,99.90
2018-08-09T09:00:13.072Z,99.90
2018-08-09T09:02:43.539Z,99.90
2018-08-09T09:05:13.555Z,99.90
2018-08-09T09:07:42.929Z,99.90
2018-08-09T09:10:13.434Z,99.90
2018-08-09T09:12:43.405Z,99.90
2018-08-09T09:15:14.827Z,99.90
2018-08-09T09:17:44.551Z,99.90
2018-08-09T09:20:15.367Z,99.90
2018-08-09T09:22:45.116Z,99.90
2018-08-09T09:25:16.928Z,99.90
2018-08-09T09:27:46.458Z,99.90
2018-08-09T09:30:17.241Z,99.90
2018-08-09T09:32:46.719Z,99.90
2018-08-09T09:35:16.504Z,99.90
2018-08-09T09:37:46.224Z,99.90
2018-08-09T09:40:15.547Z,99.60
2018-08-09T09:42:44.913Z,99.80
2018-08-09T09:45:14.288Z,99.90
2018-08-09T09:47:43.996Z,99.80
2018-08-09T09:50:13.393Z,98.50
2018-08-09T09:52:44.016Z,98.70
2018-08-09T09:55:13.395Z,98.80
2018-08-09T09:57:42.792Z,98.10
2018-08-09T10:00:18.074Z,98.00
2018-08-09T10:02:47.228Z,98.50
2018-08-09T10:05:16.361Z,97.80
2018-08-09T10:07:45.551Z,98.00
2018-08-09T10:10:14.678Z,97.60
2018-08-09T10:12:44.105Z,98.40
2018-08-09T10:15:13.611Z,98.90
2018-08-09T10:17:42.855Z,97.40
2018-08-09T10:20:12.048Z,97.50
2018-08-09T10:22:41.367Z,96.80
2018-08-09T10:25:10.256Z,97.30
2018-08-09T10:27:39.590Z,97.30
2018-08-09T10:30:09.094Z,98.00
2018-08-09T10:32:38.343Z,97.70
2018-08-09T10:35:07.307Z,97.80
2018-08-09T10:37:36.187Z,95.90
2018-08-09T10:40:05.361Z,96.60
2018-08-09T10:42:34.318Z,96.90
2018-08-09T10:45:03.959Z,96.00
2018-08-09T10:47:32.944Z,95.70
2018-08-09T10:50:01.814Z,95.80
2018-08-09T10:52:30.713Z,95.40
2018-08-09T10:54:59.920Z,95.90
2018-08-09T10:57:28.820Z,95.70
2018-08-09T10:59:57.679Z,95.40
2018-08-09T11:02:26.629Z,96.10
2018-08-09T11:04:55.514Z,95.60
2018-08-09T11:07:24.385Z,95.30
2018-08-09T11:09:53.274Z,96.90
2018-08-09T11:12:22.139Z,95.60
2018-08-09T11:14:50.970Z,94.30
2018-08-09T11:17:19.845Z,94.10
2018-08-09T11:19:48.711Z,94.00
2018-08-09T11:22:17.592Z,93.70
2018-08-09T11:24:46.459Z,93.90
2018-08-09T11:27:15.339Z,93.50
2018-08-09T11:29:44.201Z,95.20
2018-08-09T11:32:13.818Z,94.50
2018-08-09T11:34:43.282Z,94.10
2018-08-09T11:37:12.260Z,94.90
2018-08-09T11:39:41.718Z,96.00
2018-08-09T11:42:10.947Z,95.70
2018-08-09T11:44:40.051Z,94.50
2018-08-09T11:47:09.222Z,93.90
2018-08-09T11:49:38.468Z,93.70
2018-08-09T11:52:07.489Z,94.10
2018-08-09T11:54:36.976Z,93.80
2018-08-09T11:57:06.508Z,94.30
2018-08-09T11:59:35.419Z,93.00
2018-08-09T12:02:04.483Z,92.80
2018-08-09T12:04:33.743Z,92.90
2018-08-09T12:07:02.672Z,93.20
2018-08-09T12:09:31.562Z,93.10
2018-08-09T12:12:00.423Z,92.20
2018-08-09T12:14:29.327Z,93.40
2018-08-09T12:16:58.273Z,93.60
2018-08-09T12:19:27.919Z,93.00
2018-08-09T12:21:57.033Z,92.70
2018-08-09T12:24:25.979Z,90.50
2018-08-09T12:26:54.986Z,91.80
2018-08-09T12:29:23.830Z,91.60
2018-08-09T12:31:53.308Z,91.30
2018-08-09T12:34:22.291Z,90.90
2018-08-09T12:36:51.178Z,91.70
2018-08-09T12:39:20.128Z,92.10
2018-08-09T12:41:49.240Z,91.20
2018-08-09T12:44:18.474Z,91.50
2018-08-09T12:46:48.984Z,90.90
2018-08-09T12:49:19.057Z,89.80
2018-08-09T12:51:48.701Z,89.00
2018-08-09T12:54:19.007Z,90.50
2018-08-09T12:56:49.497Z,92.10
2018-08-09T12:59:19.440Z,90.90
2018-08-09T13:01:49.116Z,88.20
2018-08-09T13:04:18.980Z,88.60
2018-08-09T13:06:48.556Z,90.40
2018-08-09T13:09:18.160Z,90.30
2018-08-09T13:11:48.270Z,89.70
2018-08-09T13:14:18.506Z,88.30
2018-08-09T13:16:47.705Z,87.90
2018-08-09T13:19:16.588Z,89.50
2018-08-09T13:21:45.576Z,90.00
2018-08-09T13:24:14.455Z,90.20
2018-08-09T13:26:43.365Z,90.00
2018-08-09T13:29:12.235Z,88.00
2018-08-09T13:31:41.886Z,86.20
2018-08-09T13:34:11.476Z,89.20
2018-08-09T13:36:40.439Z,85.70
2018-08-09T13:39:12.112Z,86.10
2018-08-09T13:41:42.207Z,86.40
2018-08-09T13:44:11.503Z,86.80
2018-08-09T13:46:40.474Z,85.70
2018-08-09T13:49:09.407Z,83.80
2018-08-09T13:51:38.388Z,83.90
2018-08-09T13:54:07.303Z,82.80
2018-08-09T13:56:36.162Z,84.30
2018-08-09T13:59:05.127Z,85.30
2018-08-09T14:01:34.614Z,84.40
2018-08-09T14:04:04.074Z,82.20
2018-08-09T14:06:33.808Z,82.00
2018-08-09T14:09:03.824Z,80.50
2018-08-09T14:11:32.905Z,81.30
2018-08-09T14:14:01.795Z,81.50
2018-08-09T14:16:30.739Z,80.30
2018-08-09T14:18:59.622Z,80.30
2018-08-09T14:21:28.806Z,79.30
2018-08-09T14:23:57.691Z,80.70
2018-08-09T14:26:26.668Z,76.90
2018-08-09T14:28:55.521Z,78.00
2018-08-09T14:31:24.478Z,80.10
2018-08-09T14:33:53.568Z,76.70
2018-08-09T14:36:22.836Z,77.30
2018-08-09T14:38:52.623Z,77.00
2018-08-09T14:41:22.294Z,76.70
2018-08-09T14:43:51.863Z,77.30
2018-08-09T14:46:21.661Z,74.00
2018-08-09T14:48:51.716Z,75.10
2018-08-09T14:51:21.217Z,76.10
2018-08-09T14:53:50.897Z,74.80
2018-08-09T14:56:19.791Z,73.70
2018-08-09T14:58:48.752Z,74.60
2018-08-09T15:01:17.771Z,75.80
2018-08-09T15:03:46.815Z,76.20
2018-08-09T15:06:16.738Z,77.40
2018-08-09T15:08:45.975Z,74.10
2018-08-09T15:11:15.264Z,74.90
2018-08-09T15:13:44.591Z,74.00
2018-08-09T15:16:13.554Z,72.70
2018-08-09T15:18:42.566Z,74.80
2018-08-09T15:21:11.860Z,73.30
2018-08-09T15:23:40.810Z,73.80
2018-08-09T15:26:09.671Z,75.40
2018-08-09T15:28:38.563Z,74.10
2018-08-09T15:31:07.494Z,74.90
2018-08-09T15:33:36.487Z,74.70
2018-08-09T15:36:05.950Z,72.90
2018-08-09T15:38:34.989Z,72.20
2018-08-09T15:41:03.987Z,75.10
2018-08-09T15:43:33.203Z,73.00
2018-08-09T15:46:02.150Z,74.50
2018-08-09T15:48:31.016Z,75.60
2018-08-09T15:51:00.256Z,75.50
2018-08-09T15:53:29.443Z,73.90
2018-08-09T15:55:58.367Z,73.10
2018-08-09T15:58:27.943Z,73.40
2018-08-09T16:00:57.182Z,73.70
2018-08-09T16:03:26.423Z,74.60
2018-08-09T16:05:55.606Z,73.50
2018-08-09T16:08:24.850Z,74.40
2018-08-09T16:10:54.144Z,75.70
2018-08-09T16:13:23.175Z,74.80
2018-08-09T16:15:52.264Z,74.00
2018-08-09T16:18:21.211Z,75.40
2018-08-09T16:20:50.131Z,75.90
2018-08-09T16:23:19.025Z,77.10
2018-08-09T16:25:47.967Z,76.50
2018-08-09T16:28:16.871Z,76.80
2018-08-09T16:30:45.831Z,77.50
2018-08-09T16:33:15.860Z,77.40
2018-08-09T16:35:45.019Z,76.50
2018-08-09T16:38:13.934Z,77.40
2018-08-09T16:40:42.860Z,77.40
2018-08-09T16:43:11.917Z,78.20
2018-08-09T16:45:40.828Z,77.90
2018-08-09T16:48:09.742Z,79.80
2018-08-09T16:50:38.638Z,78.70
2018-08-09T16:53:07.715Z,80.90
2018-08-09T16:55:36.722Z,80.20
2018-08-09T16:58:05.619Z,79.40
2018-08-09T17:00:34.785Z,80.70
2018-08-09T17:03:03.888Z,80.30
2018-08-09T17:05:32.873Z,79.70
2018-08-09T17:08:01.902Z,81.10
2018-08-09T17:10:30.831Z,81.30
2018-08-09T17:13:00.134Z,80.10
2018-08-09T17:15:29.355Z,81.70
2018-08-09T17:17:59.011Z,82.10
2018-08-09T17:20:30.183Z,81.60
2018-08-09T17:23:00.527Z,82.00
2018-08-09T17:25:29.499Z,83.50
2018-08-09T17:27:58.433Z,83.20
2018-08-09T17:30:28.278Z,83.40
2018-08-09T17:32:57.952Z,84.40
2018-08-09T17:35:26.966Z,83.40
2018-08-09T17:37:56.044Z,83.30
2018-08-09T17:40:28.108Z,83.40
2018-08-09T17:42:57.780Z,83.80
2018-08-09T17:45:29.942Z,84.60
2018-08-09T17:47:59.610Z,84.60
2018-08-09T17:50:28.600Z,85.30
2018-08-09T17:52:59.962Z,85.60
2018-08-09T17:55:29.395Z,86.00
2018-08-09T17:57:58.407Z,86.50
2018-08-09T18:00:29.534Z,86.50
2018-08-09T18:02:58.610Z,87.40
2018-08-09T18:05:27.571Z,87.50
2018-08-09T18:07:57.640Z,87.80
2018-08-09T18:10:30.267Z,88.20
2018-08-09T18:12:59.265Z,88.60
2018-08-09T18:15:29.156Z,89.20
2018-08-09T18:17:58.747Z,90.00
2018-08-09T18:20:31.279Z,90.30
2018-08-09T18:23:00.476Z,90.30
2018-08-09T18:25:29.404Z,90.80
2018-08-09T18:27:58.514Z,90.80
2018-08-09T18:30:27.503Z,91.80
2018-08-09T18:32:56.659Z,91.50
2018-08-09T18:35:25.596Z,91.70
2018-08-09T18:37:54.535Z,92.00
2018-08-09T18:40:25.596Z,92.30
2018-08-09T18:42:54.629Z,92.30
2018-08-09T18:45:23.922Z,92.50
2018-08-09T18:47:52.948Z,93.30
2018-08-09T18:50:24.794Z,93.00
2018-08-09T18:52:54.763Z,93.00
2018-08-09T18:55:23.676Z,93.20
2018-08-09T18:57:53.221Z,93.50
2018-08-09T19:00:27.399Z,93.80
2018-08-09T19:02:57.178Z,94.10
2018-08-09T19:05:26.509Z,94.20
2018-08-09T19:07:55.647Z,94.40
2018-08-09T19:10:28.480Z,94.30
2018-08-09T19:12:57.492Z,94.50
2018-08-09T19:16:06.091Z,94.60
2018-08-09T19:18:35.155Z,94.50
2018-08-09T19:21:04.190Z,94.60
2018-08-09T19:23:33.211Z,95.00
2018-08-09T19:26:02.159Z,95.10
2018-08-09T19:28:31.072Z,95.30
2018-08-09T19:30:59.997Z,95.50
2018-08-09T19:33:29.016Z,95.70
2018-08-09T19:35:57.935Z,95.90
2018-08-09T19:38:26.868Z,95.90
2018-08-09T19:40:55.911Z,96.10
2018-08-09T19:43:25.949Z,96.10
2018-08-09T19:45:54.862Z,96.40
2018-08-09T19:48:23.859Z,96.60
2018-08-09T19:50:52.784Z,96.80
2018-08-09T19:53:21.747Z,96.80
2018-08-09T19:55:50.660Z,97.10
2018-08-09T19:58:19.617Z,97.30
2018-08-09T20:00:48.504Z,97.30
2018-08-09T20:03:21.744Z,97.60
2018-08-09T20:05:50.663Z,97.70
2018-08-09T20:08:19.559Z,97.90
2018-08-09T20:10:48.434Z,98.00
2018-08-09T20:13:17.455Z,98.00
2018-08-09T20:15:46.392Z,98.10
2018-08-09T20:18:15.303Z,98.30
2018-08-09T20:20:44.278Z,98.20
2018-08-09T20:23:13.294Z,98.30
2018-08-09T20:25:42.236Z,98.40
2018-08-09T20:28:11.171Z,98.50
2018-08-09T20:30:40.163Z,98.80
2018-08-09T20:33:09.115Z,98.90
2018-08-09T20:35:38.066Z,99.00
2018-08-09T20:38:06.995Z,99.00
2018-08-09T20:40:35.953Z,99.10
2018-08-09T20:43:05.462Z,98.90
2018-08-09T20:45:34.412Z,99.20
2018-08-09T20:48:03.496Z,99.30
2018-08-09T20:50:32.414Z,99.40
2018-08-09T20:53:01.409Z,99.40
2018-08-09T20:55:30.281Z,99.60
2018-08-09T20:57:59.264Z,99.70
2018-08-09T21:00:29.974Z,99.80
2018-08-09T21:03:01.200Z,99.90
2018-08-09T21:05:31.959Z,99.80
2018-08-09T21:08:00.951Z,99.90
2018-08-09T21:10:30.162Z,99.90
2018-08-09T21:12:59.243Z,99.90
2018-08-09T21:15:28.234Z,99.90
2018-08-09T21:17:57.536Z,99.90
2018-08-09T21:20:26.490Z,99.90
2018-08-09T21:22:55.507Z,99.90
2018-08-09T21:25:24.414Z,99.90
2018-08-09T21:27:53.252Z,99.90
2018-08-09T21:30:22.811Z,99.90
2018-08-09T21:32:52.175Z,99.90
2018-08-09T21:35:21.071Z,99.90
2018-08-09T21:37:50.050Z,99.90
2018-08-09T21:40:18.935Z,99.90
2018-08-09T21:42:47.927Z,99.90
2018-08-09T21:45:18.067Z,99.90
2018-08-09T21:47:47.047Z,99.90
2018-08-09T21:50:17.704Z,99.90
2018-08-09T21:52:46.702Z,99.90
2018-08-09T21:55:15.670Z,99.90
2018-08-09T21:57:45.383Z,99.90
2018-08-09T22:00:53.912Z,99.90
2018-08-09T22:03:25.381Z,99.90
2018-08-09T22:06:00.035Z,99.90
2018-08-09T22:08:34.640Z,99.90
2018-08-09T22:11:09.775Z,99.90
2018-08-09T22:13:44.479Z,99.90
2018-08-09T22:16:19.083Z,99.90
2018-08-09T22:18:53.583Z,99.90
2018-08-09T22:21:28.128Z,99.90
2018-08-09T22:23:57.176Z,99.90
2018-08-09T22:26:26.189Z,99.90
2018-08-09T22:28:55.106Z,99.90
2018-08-09T22:31:24.014Z,99.90
2018-08-09T22:33:53.235Z,99.90
2018-08-09T22:36:22.239Z,99.90
2018-08-09T22:38:51.128Z,99.90
2018-08-09T22:41:20.055Z,99.90
2018-08-09T22:43:49.031Z,99.90
2018-08-09T22:46:17.967Z,99.90
2018-08-09T22:48:46.875Z,99.90
2018-08-09T22:51:15.835Z,99.90
2018-08-09T22:53:44.745Z,99.90
2018-08-09T22:56:13.678Z,99.90
2018-08-09T22:58:42.579Z,99.90
2018-08-09T23:01:11.583Z,99.90
2018-08-09T23:03:40.612Z,99.90
2018-08-09T23:06:09.708Z,99.90
2018-08-09T23:08:38.639Z,99.90
2018-08-09T23:11:07.960Z,99.90
2018-08-09T23:13:37.007Z,99.90
2018-08-09T23:16:06.433Z,99.90
2018-08-09T23:18:35.319Z,99.90
2018-08-09T23:21:04.271Z,99.90
2018-08-09T23:23:33.268Z,99.90
2018-08-09T23:26:02.223Z,99.90
2018-08-09T23:28:31.206Z,99.90
2018-08-09T23:31:00.093Z,99.90
2018-08-09T23:33:29.091Z,99.90
2018-08-09T23:35:57.987Z,99.90
2018-08-09T23:38:27.078Z,99.90
2018-08-09T23:40:55.926Z,99.90
2018-08-09T23:43:24.927Z,99.90
2018-08-09T23:45:53.759Z,99.90
2018-08-09T23:48:22.674Z,99.90
2018-08-09T23:50:51.576Z,99.90
2018-08-09T23:53:20.503Z,99.90
2018-08-09T23:55:49.343Z,99.90
2018-08-09T23:58:18.271Z,99.90
